createdAt,value
2018-12-28T00:01:58.430Z,4.20
2018-12-28T00:04:44.527Z,4.93
2018-12-28T00:07:30.888Z,4.37
2018-12-28T00:10:17.265Z,4.53
2018-12-28T00:13:03.388Z,4.60
2018-12-28T00:15:49.479Z,5.33
2018-12-28T00:18:35.566Z,4.57
2018-12-28T00:21:21.948Z,5.03
2018-12-28T00:24:08.067Z,5.60
2018-12-28T00:26:54.418Z,4.57
2018-12-28T00:29:40.490Z,5.10
2018-12-28T00:32:26.763Z,4.53
2018-12-28T00:35:13.092Z,4.53
2018-12-28T00:37:59.983Z,4.00
2018-12-28T00:40:39.577Z,4.40
2018-12-28T00:43:25.701Z,6.20
2018-12-28T00:46:11.797Z,4.40
2018-12-28T00:48:57.899Z,3.97
2018-12-28T00:51:43.982Z,4.10
2018-12-28T00:54:30.362Z,4.03
2018-12-28T00:57:16.680Z,4.37
2018-12-28T01:03:17.545Z,3.40
2018-12-28T01:06:03.628Z,4.47
2018-12-28T01:09:14.272Z,4.07
2018-12-28T01:11:59.641Z,3.77
2018-12-28T01:14:46.071Z,10.30
2018-12-28T01:17:32.192Z,4.00
2018-12-28T01:20:18.278Z,3.83
2018-12-28T01:26:20.043Z,3.90
2018-12-28T01:29:06.243Z,4.13
2018-12-28T01:31:52.293Z,4.90
2018-12-28T01:34:38.657Z,3.53
2018-12-28T01:37:24.743Z,4.57
2018-12-28T01:39:50.979Z,4.30
2018-12-28T01:42:37.100Z,7.70
2018-12-28T01:45:23.518Z,4.07
2018-12-28T01:48:09.954Z,4.50
2018-12-28T01:50:56.505Z,3.50
2018-12-28T01:53:42.598Z,4.07
2018-12-28T01:56:28.952Z,4.93
2018-12-28T01:59:15.129Z,4.60
2018-12-28T02:02:01.476Z,4.20
2018-12-28T02:04:47.825Z,4.83
2018-12-28T02:07:34.230Z,5.43
2018-12-28T02:10:20.497Z,4.13
2018-12-28T02:13:06.574Z,4.07
2018-12-28T02:15:53.027Z,4.30
2018-12-28T02:18:39.123Z,4.30
2018-12-28T02:21:25.694Z,3.70
2018-12-28T02:24:12.034Z,4.40
2018-12-28T02:26:58.130Z,3.73
2018-12-28T02:29:44.218Z,4.30
2018-12-28T02:32:30.322Z,4.10
2018-12-28T02:35:16.676Z,4.57
2018-12-28T02:38:03.020Z,4.50
2018-12-28T02:40:42.281Z,5.30
2018-12-28T02:43:28.345Z,4.80
2018-12-28T02:46:14.829Z,3.67
2018-12-28T02:49:01.182Z,4.20
2018-12-28T02:51:47.265Z,4.33
2018-12-28T02:54:33.638Z,4.67
2018-12-28T02:57:19.740Z,4.93
2018-12-28T03:00:05.850Z,5.20
2018-12-28T03:02:32.021Z,3.63
2018-12-28T03:04:58.224Z,4.43
2018-12-28T03:07:44.692Z,4.30
2018-12-28T03:10:10.851Z,4.77
2018-12-28T03:12:37.554Z,4.00
2018-12-28T03:15:39.075Z,4.23
2018-12-28T03:18:13.577Z,3.80
2018-12-28T03:23:56.026Z,4.73
2018-12-28T03:26:22.333Z,4.00
2018-12-28T03:28:48.540Z,4.20
2018-12-28T03:31:14.771Z,4.07
2018-12-28T03:33:43.741Z,4.70
2018-12-28T03:36:10.200Z,3.53
2018-12-28T03:38:56.545Z,4.80
2018-12-28T03:41:38.309Z,4.63
2018-12-28T03:44:24.927Z,4.57
2018-12-28T03:47:11.265Z,4.63
2018-12-28T03:49:39.004Z,5.23
2018-12-28T03:52:05.192Z,4.40
2018-12-28T03:54:51.288Z,4.80
2018-12-28T03:57:37.351Z,5.33
2018-12-28T04:00:23.452Z,5.20
2018-12-28T04:03:09.793Z,5.20
2018-12-28T04:05:55.910Z,4.67
2018-12-28T04:08:42.007Z,5.30
2018-12-28T04:11:28.096Z,5.73
2018-12-28T04:14:14.181Z,5.33
2018-12-28T04:17:00.284Z,4.53
2018-12-28T04:19:46.381Z,5.83
2018-12-28T04:22:32.750Z,4.80
2018-12-28T04:25:19.086Z,5.43
2018-12-28T04:28:05.151Z,5.10
2018-12-28T04:30:51.537Z,5.80
2018-12-28T04:33:37.937Z,5.00
2018-12-28T04:36:24.280Z,5.40
2018-12-28T04:39:10.625Z,6.53
2018-12-28T04:41:49.867Z,5.93
2018-12-28T04:44:35.962Z,5.80
2018-12-28T04:47:22.034Z,5.60
2018-12-28T04:50:08.373Z,6.50
2018-12-28T04:52:54.465Z,6.50
2018-12-28T04:55:40.549Z,6.00
2018-12-28T04:58:27.020Z,6.07
2018-12-28T05:01:35.141Z,7.40
2018-12-28T05:05:01.255Z,6.53
2018-12-28T05:08:27.373Z,5.93
2018-12-28T05:11:53.226Z,6.20
2018-12-28T05:15:19.091Z,6.00
2018-12-28T05:18:26.981Z,6.80
2018-12-28T05:21:35.114Z,5.97
2018-12-28T05:25:01.227Z,5.00
2018-12-28T05:28:09.107Z,7.10
2018-12-28T05:31:34.959Z,6.10
2018-12-28T05:34:21.295Z,6.67
2018-12-28T05:37:07.658Z,6.70
2018-12-28T05:39:54.022Z,6.50
2018-12-28T05:42:40.353Z,7.27
2018-12-28T05:45:26.492Z,6.00
2018-12-28T05:48:12.561Z,7.50
2018-12-28T05:50:58.653Z,6.63
2018-12-28T05:53:44.749Z,6.80
2018-12-28T05:56:31.054Z,6.87
2018-12-28T05:59:18.017Z,7.17
2018-12-28T06:02:04.087Z,6.00
2018-12-28T06:04:50.178Z,6.93
2018-12-28T06:07:36.578Z,6.97
2018-12-28T06:10:22.946Z,6.20
2018-12-28T06:13:09.375Z,7.00
2018-12-28T06:15:55.728Z,6.57
2018-12-28T06:18:41.814Z,7.30
2018-12-28T06:21:27.898Z,6.30
2018-12-28T06:24:14.276Z,6.30
2018-12-28T06:27:00.371Z,5.83
2018-12-28T06:29:46.693Z,5.13
2018-12-28T06:32:32.784Z,6.20
2018-12-28T06:35:19.109Z,5.93
2018-12-28T06:38:05.433Z,5.87
2018-12-28T06:40:45.727Z,5.13
2018-12-28T06:43:31.910Z,6.43
2018-12-28T06:46:18.248Z,6.60
2018-12-28T06:49:04.577Z,6.13
2018-12-28T06:51:50.705Z,6.30
2018-12-28T06:55:16.608Z,5.50
2018-12-28T06:58:24.453Z,4.83
2018-12-28T07:01:51.874Z,5.00
2018-12-28T07:04:59.731Z,5.70
2018-12-28T07:08:25.595Z,6.20
2018-12-28T07:11:33.810Z,6.73
2018-12-28T07:14:41.673Z,7.00
2018-12-28T07:17:49.552Z,7.77
2018-12-28T07:21:15.428Z,8.43
2018-12-28T07:24:43.508Z,9.07
2018-12-28T07:28:09.350Z,10.77
2018-12-28T07:31:35.206Z,8.90
2018-12-28T07:35:03.250Z,10.93
2018-12-28T07:38:11.407Z,10.20
2018-12-28T07:40:55.804Z,12.13
2018-12-28T07:44:21.628Z,11.17
2018-12-28T07:47:47.476Z,12.10
2018-12-28T07:51:13.593Z,11.80
2018-12-28T07:54:39.691Z,11.87
2018-12-28T07:57:47.834Z,12.40
2018-12-28T08:01:13.690Z,12.03
2018-12-28T08:04:21.810Z,14.40
2018-12-28T08:07:29.663Z,12.70
2018-12-28T08:11:01.998Z,13.07
2018-12-28T08:14:18.139Z,10.63
2018-12-28T08:17:33.050Z,11.97
2018-12-28T08:20:58.908Z,11.33
2018-12-28T08:24:25.003Z,12.80
2018-12-28T08:27:32.878Z,12.20
2018-12-28T08:30:58.723Z,11.77
2018-12-28T08:34:24.557Z,12.43
2018-12-28T08:37:32.687Z,13.27
2018-12-28T08:40:40.662Z,12.63
2018-12-28T08:44:06.557Z,12.60
2018-12-28T08:51:19.602Z,12.90
2018-12-28T08:54:45.693Z,12.70
2018-12-28T08:57:53.582Z,11.90
2018-12-28T09:01:03.905Z,13.50
2018-12-28T09:04:11.771Z,12.60
2018-12-28T09:07:37.606Z,13.37
2018-12-28T09:10:45.749Z,11.70
2018-12-28T09:14:11.588Z,12.57
2018-12-28T09:17:19.839Z,10.77
2018-12-28T09:20:45.680Z,14.27
2018-12-28T09:23:52.591Z,10.60
2018-12-28T09:27:00.721Z,11.13
2018-12-28T09:30:26.574Z,10.53
2018-12-28T09:33:52.439Z,10.33
2018-12-28T09:37:18.563Z,11.13
2018-12-28T09:40:44.743Z,11.27
2018-12-28T09:44:10.621Z,10.63
2018-12-28T09:47:18.782Z,11.50
2018-12-28T09:50:26.672Z,11.10
2018-12-28T09:53:34.543Z,11.20
2018-12-28T09:57:00.413Z,10.30
2018-12-28T10:00:08.271Z,10.93
2018-12-28T10:03:16.429Z,10.27
2018-12-28T10:06:24.654Z,10.60
2018-12-28T10:09:53.375Z,12.07
2018-12-28T10:13:21.403Z,10.40
2018-12-28T10:16:49.772Z,11.40
2018-12-28T10:19:36.109Z,11.70
2018-12-28T10:22:22.388Z,10.10
2018-12-28T10:25:10.962Z,10.00
2018-12-28T10:27:57.320Z,11.00
2018-12-28T10:30:43.406Z,12.00
2018-12-28T10:33:36.544Z,11.40
2018-12-28T10:36:17.794Z,10.83
2018-12-28T10:39:04.948Z,10.20
2018-12-28T10:41:44.656Z,10.93
2018-12-28T10:44:30.999Z,11.30
2018-12-28T10:47:38.893Z,11.20
2018-12-28T10:50:25.006Z,11.10
2018-12-28T10:53:52.210Z,10.50
2018-12-28T10:56:38.366Z,10.30
2018-12-28T10:59:24.414Z,9.87
2018-12-28T11:02:10.855Z,9.20
2018-12-28T11:04:56.934Z,10.13
2018-12-28T11:07:43.298Z,10.03
2018-12-28T11:10:29.368Z,9.03
2018-12-28T11:13:28.724Z,8.70
2018-12-28T11:16:04.014Z,8.87
2018-12-28T11:18:50.343Z,7.70
2018-12-28T11:21:36.437Z,9.30
2018-12-28T11:24:22.727Z,8.43
2018-12-28T11:27:08.805Z,8.83
2018-12-28T11:29:55.126Z,9.40
2018-12-28T11:33:03.007Z,9.37
2018-12-28T11:36:10.254Z,11.50
2018-12-28T11:39:18.437Z,9.50
2018-12-28T11:41:59.609Z,9.17
2018-12-28T11:44:48.778Z,9.23
2018-12-28T11:47:35.126Z,10.77
2018-12-28T11:50:21.490Z,9.90
2018-12-28T11:53:07.588Z,10.20
2018-12-28T11:55:53.678Z,9.67
2018-12-28T11:58:40.082Z,8.33
2018-12-28T12:01:26.441Z,8.70
2018-12-28T12:04:12.791Z,8.30
2018-12-28T12:06:58.890Z,8.00
2018-12-28T12:09:44.967Z,8.20
2018-12-28T12:12:31.334Z,8.70
2018-12-28T12:15:17.645Z,9.20
2018-12-28T12:18:05.482Z,8.40
2018-12-28T12:20:51.582Z,8.70
2018-12-28T12:23:37.918Z,9.23
2018-12-28T12:26:24.037Z,8.50
2018-12-28T12:29:10.385Z,10.70
2018-12-28T12:31:56.725Z,8.73
2018-12-28T12:34:43.081Z,8.40
2018-12-28T12:37:29.168Z,8.27
2018-12-28T12:40:15.540Z,9.30
2018-12-28T12:42:54.908Z,8.77
2018-12-28T12:45:41.278Z,9.33
2018-12-28T12:48:27.597Z,8.90
2018-12-28T12:51:13.810Z,9.77
2018-12-28T12:53:59.939Z,8.97
2018-12-28T12:56:46.026Z,9.00
2018-12-28T12:59:32.396Z,8.50
2018-12-28T13:02:18.494Z,8.60
2018-12-28T13:05:04.861Z,8.30
2018-12-28T13:07:50.920Z,9.17
2018-12-28T13:10:37.256Z,8.00
2018-12-28T13:13:23.588Z,8.20
2018-12-28T13:16:10.444Z,8.90
2018-12-28T13:18:56.523Z,8.00
2018-12-28T13:21:42.631Z,7.30
2018-12-28T13:24:29.024Z,8.30
2018-12-28T13:27:15.127Z,8.50
2018-12-28T13:30:01.532Z,7.30
2018-12-28T13:32:47.606Z,6.77
2018-12-28T13:35:34.000Z,6.87
2018-12-28T13:38:20.357Z,7.07
2018-12-28T13:41:06.450Z,7.17
2018-12-28T13:43:46.239Z,10.10
2018-12-28T13:46:32.609Z,8.53
2018-12-28T13:49:18.673Z,8.33
2018-12-28T13:52:04.994Z,7.13
2018-12-28T13:54:51.102Z,7.57
2018-12-28T13:57:37.209Z,6.97
2018-12-28T14:00:23.350Z,7.17
2018-12-28T14:03:09.416Z,7.50
2018-12-28T14:05:55.501Z,7.03
2018-12-28T14:08:41.859Z,7.00
2018-12-28T14:11:27.986Z,6.27
2018-12-28T14:14:14.359Z,6.80
2018-12-28T14:17:00.802Z,7.13
2018-12-28T14:19:47.234Z,6.57
2018-12-28T14:22:55.136Z,6.47
2018-12-28T14:25:41.478Z,7.67
2018-12-28T14:28:27.603Z,7.40
2018-12-28T14:31:14.016Z,7.13
2018-12-28T14:34:00.129Z,6.93
2018-12-28T14:36:46.608Z,6.90
2018-12-28T14:39:53.004Z,7.30
2018-12-28T14:42:36.512Z,7.70
2018-12-28T14:45:21.448Z,8.10
2018-12-28T14:48:07.621Z,7.60
2018-12-28T14:51:13.863Z,8.57
2018-12-28T14:54:00.186Z,8.13
2018-12-28T14:56:46.294Z,7.87
2018-12-28T14:59:32.648Z,6.80
2018-12-28T15:02:18.855Z,7.90
2018-12-28T15:05:05.483Z,7.80
2018-12-28T15:07:52.219Z,7.83
2018-12-28T15:10:38.573Z,7.30
2018-12-28T15:13:24.708Z,8.03
2018-12-28T15:16:10.815Z,8.23
2018-12-28T15:18:57.187Z,8.00
2018-12-28T15:21:43.297Z,8.10
2018-12-28T15:24:29.666Z,8.10
2018-12-28T15:27:16.043Z,8.30
2018-12-28T15:30:24.260Z,7.50
2018-12-28T15:33:10.632Z,7.93
2018-12-28T15:35:56.712Z,6.40
2018-12-28T15:38:43.093Z,8.00
2018-12-28T15:41:29.197Z,7.00
2018-12-28T15:44:09.303Z,5.73
2018-12-28T15:47:15.593Z,7.00
2018-12-28T15:50:02.450Z,7.27
2018-12-28T15:52:48.782Z,7.07
2018-12-28T15:55:55.727Z,7.77
2018-12-28T15:58:42.212Z,7.53
2018-12-28T16:01:28.562Z,7.80
2018-12-28T16:04:14.704Z,8.60
2018-12-28T16:07:01.067Z,8.00
2018-12-28T16:09:27.276Z,7.80
2018-12-28T16:12:13.652Z,7.63
2018-12-28T16:14:59.777Z,7.47
2018-12-28T16:17:45.969Z,8.07
2018-12-28T16:20:12.839Z,8.40
2018-12-28T16:22:58.931Z,8.73
2018-12-28T16:25:45.311Z,9.30
2018-12-28T16:28:31.700Z,8.10
2018-12-28T16:31:18.119Z,9.63
2018-12-28T16:34:04.482Z,9.77
2018-12-28T16:36:50.568Z,9.07
2018-12-28T16:39:36.716Z,9.77
2018-12-28T16:42:23.106Z,10.13
2018-12-28T16:45:09.232Z,9.80
2018-12-28T16:47:55.589Z,8.20
2018-12-28T16:50:42.004Z,9.60
2018-12-28T16:53:28.157Z,9.17
2018-12-28T16:56:36.508Z,9.53
2018-12-28T16:59:22.945Z,10.30
2018-12-28T17:02:09.087Z,9.20
2018-12-28T17:04:56.629Z,10.17
2018-12-28T17:07:43.462Z,10.00
2018-12-28T17:10:30.185Z,9.53
2018-12-28T17:13:16.809Z,9.90
2018-12-28T17:16:03.724Z,10.43
2018-12-28T17:18:51.579Z,11.97
2018-12-28T17:21:40.544Z,11.40
2018-12-28T17:24:27.252Z,10.80
2018-12-28T17:27:14.187Z,10.77
2018-12-28T17:30:00.333Z,10.70
2018-12-28T17:32:46.736Z,9.10
2018-12-28T17:35:33.143Z,10.57
2018-12-28T17:38:19.352Z,11.63
2018-12-28T17:41:06.031Z,11.70
2018-12-28T17:43:53.860Z,11.30
2018-12-28T17:46:36.893Z,11.70
2018-12-28T17:49:23.102Z,11.80
2018-12-28T17:52:09.757Z,11.87
2018-12-28T17:55:16.379Z,12.23
2018-12-28T18:03:48.776Z,12.13
2018-12-28T18:06:35.651Z,12.07
2018-12-28T18:09:21.782Z,11.80
2018-12-28T18:12:10.516Z,11.50
2018-12-28T18:15:10.317Z,11.07
2018-12-28T18:17:45.598Z,12.73
2018-12-28T18:20:37.629Z,12.27
2018-12-28T18:23:24.262Z,12.07
2018-12-28T18:26:10.514Z,12.60
2018-12-28T18:28:56.587Z,13.93
2018-12-28T18:31:42.792Z,13.30
2018-12-28T18:34:29.030Z,12.93
2018-12-28T18:37:15.112Z,14.57
2018-12-28T18:40:01.844Z,14.20
2018-12-28T18:42:48.275Z,14.73
2018-12-28T18:45:27.472Z,15.07
2018-12-28T18:48:13.888Z,14.07
2018-12-28T18:51:00.041Z,14.97
2018-12-28T18:53:46.149Z,14.13
2018-12-28T18:56:32.275Z,14.67
2018-12-28T18:59:18.603Z,14.33
2018-12-28T19:02:05.028Z,12.17
2018-12-28T19:04:51.406Z,12.30
2018-12-28T19:07:37.803Z,13.50
2018-12-28T19:10:24.000Z,12.37
2018-12-28T19:13:10.400Z,12.90
2018-12-28T19:15:56.782Z,14.10
2018-12-28T19:18:42.902Z,12.43
2018-12-28T19:21:29.247Z,11.93
2018-12-28T19:24:15.345Z,13.30
2018-12-28T19:27:01.422Z,12.67
2018-12-28T19:29:47.487Z,12.90
2018-12-28T19:32:33.830Z,12.90
2018-12-28T19:35:19.926Z,12.63
2018-12-28T19:38:06.041Z,14.30
2018-12-28T19:40:52.116Z,13.60
2018-12-28T19:43:38.270Z,12.97
2018-12-28T19:46:24.682Z,12.73
2018-12-28T19:49:10.748Z,13.30
2018-12-28T19:51:57.536Z,12.27
2018-12-28T19:54:43.632Z,14.07
2018-12-28T19:57:29.975Z,13.10
2018-12-28T20:00:16.329Z,13.40
2018-12-28T20:03:02.699Z,13.10
2018-12-28T20:05:48.828Z,14.43
2018-12-28T20:08:34.923Z,14.63
2018-12-28T20:11:21.293Z,14.93
2018-12-28T20:14:07.390Z,15.60
2018-12-28T20:16:53.516Z,14.97
2018-12-28T20:19:39.686Z,13.60
2018-12-28T20:22:26.197Z,15.30
2018-12-28T20:25:12.300Z,13.63
2018-12-28T20:27:58.382Z,15.00
2018-12-28T20:30:44.719Z,16.53
2018-12-28T20:33:32.354Z,15.50
2018-12-28T20:36:19.077Z,15.03
2018-12-28T20:39:05.584Z,15.83
2018-12-28T20:41:51.676Z,14.27
2018-12-28T20:44:32.100Z,15.70
2018-12-28T20:47:18.605Z,16.23
2018-12-28T20:50:05.284Z,16.83
2018-12-28T20:52:51.358Z,16.67
2018-12-28T20:55:38.284Z,17.90
2018-12-28T20:58:24.366Z,17.23
2018-12-28T21:01:10.707Z,18.63
2018-12-28T21:03:56.815Z,18.73
2018-12-28T21:06:42.874Z,19.17
2018-12-28T21:09:29.206Z,18.57
2018-12-28T21:12:15.278Z,19.03
2018-12-28T21:15:01.386Z,20.03
2018-12-28T21:17:47.466Z,19.57
2018-12-28T21:20:14.915Z,18.43
2018-12-28T21:22:41.138Z,18.77
2018-12-28T21:25:27.499Z,19.47
2018-12-28T21:27:53.980Z,18.50
2018-12-28T21:30:40.054Z,18.70
2018-12-28T21:33:06.523Z,20.50
2018-12-28T21:35:33.045Z,19.93
2018-12-28T21:37:59.592Z,19.97
2018-12-28T21:40:45.689Z,18.87
2018-12-28T21:43:12.150Z,17.07
2018-12-28T21:45:38.619Z,19.13
2018-12-28T21:48:25.001Z,19.33
2018-12-28T21:50:51.451Z,17.80
2018-12-28T21:53:17.656Z,19.80
2018-12-28T21:56:03.743Z,18.77
2018-12-28T21:58:49.845Z,18.47
2018-12-28T22:01:36.185Z,21.77
2018-12-28T22:04:22.313Z,20.00
2018-12-28T22:07:08.689Z,19.60
2018-12-28T22:09:55.057Z,19.77
2018-12-28T22:12:41.139Z,19.67
2018-12-28T22:15:27.216Z,20.47
2018-12-28T22:18:13.417Z,18.90
2018-12-28T22:20:59.762Z,20.57
2018-12-28T22:23:46.097Z,20.33
2018-12-28T22:26:32.441Z,17.20
2018-12-28T22:29:18.535Z,17.67
2018-12-28T22:32:04.850Z,16.57
2018-12-28T22:34:51.191Z,18.57
2018-12-28T22:37:37.297Z,19.77
2018-12-28T22:40:23.377Z,20.00
2018-12-28T22:43:09.704Z,19.63
2018-12-28T22:45:50.548Z,22.63
2018-12-28T22:48:36.610Z,20.37
2018-12-28T22:51:22.727Z,19.87
2018-12-28T22:54:09.067Z,17.70
2018-12-28T22:56:55.130Z,17.47
2018-12-28T22:59:41.508Z,17.50
2018-12-28T23:02:27.926Z,18.90
2018-12-28T23:05:14.017Z,19.00
2018-12-28T23:08:00.177Z,17.27
2018-12-28T23:10:46.244Z,19.53
2018-12-28T23:13:32.719Z,18.20
2018-12-28T23:16:19.081Z,18.77
2018-12-28T23:19:05.540Z,16.60
2018-12-28T23:21:51.884Z,15.67
2018-12-28T23:24:37.975Z,17.20
2018-12-28T23:27:24.071Z,18.40
2018-12-28T23:30:10.154Z,17.73
2018-12-28T23:32:36.848Z,19.50
2018-12-28T23:35:22.936Z,18.33
2018-12-28T23:38:09.016Z,19.30
2018-12-28T23:40:35.888Z,16.27
2018-12-28T23:43:22.209Z,17.07
2018-12-28T23:45:48.451Z,16.93
2018-12-28T23:48:34.818Z,16.60
2018-12-28T23:54:26.586Z,16.30
2018-12-28T23:57:12.917Z,15.17
2018-12-28T23:59:59.256Z,14.93
